Time;durP1;ratioP1;P1;durP2;ratioP2;P2;SDS_P1;SDS_P2;PMS_P1;PMS_P2;Temp;Humidity;BMP_temperature;BMP_pressure;BME280_temperature;BME280_humidity;BME280_pressure;Samples;Min_cycle;Max_cycle;Signal;HPM_P1;HPM_P2
2022/08/20 00:00:53;;;;;;;14.75;8.25;;;30.10;65.50;;;;;;4962921;28;20051;-81
2022/08/20 00:03:26;;;;;;;14.35;8.20;;;30.20;66.00;;;;;;4970156;28;20118;-82
2022/08/20 00:05:56;;;;;;;13.02;7.57;;;30.10;66.50;;;;;;4977212;28;20085;-82
2022/08/20 00:08:22;;;;;;;11.10;7.18;;;30.00;66.80;;;;;;4977509;28;20485;-79
2022/08/20 00:10:50;;;;;;;11.85;7.65;;;30.10;66.20;;;;;;4977757;28;20046;-79
2022/08/20 00:13:26;;;;;;;14.15;7.53;;;29.80;67.70;;;;;;4975694;28;20034;-83
2022/08/20 00:15:52;;;;;;;12.73;7.70;;;29.40;67.30;;;;;;4977152;28;20023;-80
2022/08/20 00:18:19;;;;;;;12.05;7.25;;;29.50;67.50;;;;;;4972446;28;20030;-81
2022/08/20 00:20:48;;;;;;;11.75;8.68;;;29.40;68.40;;;;;;4977760;28;20035;-81
2022/08/20 00:23:15;;;;;;;12.63;8.63;;;29.00;69.40;;;;;;4974908;28;20035;-82
2022/08/20 00:25:42;;;;;;;14.95;8.85;;;29.10;69.00;;;;;;4977026;28;20086;-82
2022/08/20 00:28:07;;;;;;;17.80;9.43;;;29.50;67.50;;;;;;4977002;28;20474;-81
2022/08/20 00:30:34;;;;;;;18.38;8.82;;;29.70;67.70;;;;;;4977270;28;20105;-83
2022/08/20 00:33:06;;;;;;;11.93;7.88;;;29.80;66.70;;;;;;4973356;28;20089;-80
2022/08/20 00:35:35;;;;;;;19.70;9.70;;;29.70;66.70;;;;;;4976354;28;20041;-82
2022/08/20 00:38:01;;;;;;;17.70;10.13;;;29.50;68.00;;;;;;4977030;28;20085;-82
2022/08/20 00:40:37;;;;;;;13.43;8.70;;;29.60;67.40;;;;;;4974312;28;20027;-81
2022/08/20 00:43:06;;;;;;;13.30;8.00;;;29.80;67.10;;;;;;4968648;28;20121;-79
2022/08/20 00:45:34;;;;;;;16.50;7.75;;;29.70;67.40;;;;;;4958434;28;20578;-83
2022/08/20 00:48:00;;;;;;;11.38;7.95;;;29.40;68.10;;;;;;4966695;28;20022;-80
2022/08/20 00:50:33;;;;;;;15.55;8.38;;;29.30;67.00;;;;;;4977424;28;20530;-80
2022/08/20 00:53:01;;;;;;;15.35;8.90;;;29.10;69.00;;;;;;4977788;28;20045;-79
2022/08/20 00:55:28;;;;;;;15.70;7.95;;;29.20;68.50;;;;;;4977084;28;20062;-82
2022/08/20 00:57:59;;;;;;;16.35;9.57;;;29.40;68.30;;;;;;4976697;28;20118;-82
2022/08/20 01:00:26;;;;;;;;;;;29.50;67.80;;;;;;4971545;28;20046;-81
2022/08/20 01:02:52;;;;;;;15.13;8.05;;;29.80;66.50;;;;;;4990086;28;19921;-82
2022/08/20 01:05:20;;;;;;;14.57;8.55;;;29.20;68.30;;;;;;4986064;28;20066;-80
2022/08/20 01:07:47;;;;;;;17.05;9.38;;;29.10;68.50;;;;;;4996308;28;20046;-81
2022/08/20 01:10:21;;;;;;;20.83;8.88;;;29.10;68.30;;;;;;4995261;28;20026;-79
2022/08/20 01:12:49;;;;;;;19.33;9.43;;;29.20;68.10;;;;;;4994291;28;20022;-80
2022/08/20 01:15:18;;;;;;;18.52;9.90;;;28.90;69.10;;;;;;4995252;28;20362;-77
2022/08/20 01:17:48;;;;;;;16.23;9.10;;;29.10;68.30;;;;;;4995745;28;20113;-81
2022/08/20 01:20:27;;;;;;;17.13;10.53;;;29.10;68.40;;;;;;4994967;28;20033;-81
2022/08/20 01:23:27;;;;;;;12.32;8.35;;;29.00;68.50;;;;;;4997101;28;20469;-81
2022/08/20 01:26:16;;;;;;;13.30;8.57;;;29.20;68.40;;;;;;4977389;28;20194;-82
2022/08/20 01:28:48;;;;;;;18.08;10.20;;;29.40;67.70;;;;;;4983632;28;20489;-81
2022/08/20 01:31:20;;;;;;;15.32;9.77;;;29.50;67.10;;;;;;4995812;28;20499;-80
2022/08/20 01:33:46;;;;;;;19.00;10.23;;;29.70;66.20;;;;;;4995771;28;20022;-80
2022/08/20 01:36:14;;;;;;;21.35;10.63;;;29.90;65.60;;;;;;4978004;28;20038;-81
2022/08/20 01:38:40;;;;;;;16.75;10.52;;;30.10;65.10;;;;;;4996297;28;20022;-80
2022/08/20 01:41:40;;;;;;;15.23;10.43;;;29.90;66.40;;;;;;4995560;28;20026;-85
2022/08/20 01:44:05;;;;;;;16.05;9.60;;;29.90;65.80;;;;;;4994292;28;20453;-80
2022/08/20 01:46:36;;;;;;;16.85;8.82;;;29.90;65.90;;;;;;4977707;28;20069;-79
2022/08/20 01:49:22;;;;;;;16.38;8.98;;;30.00;65.50;;;;;;4995211;28;20030;-79
2022/08/20 01:51:49;;;;;;;16.98;9.27;;;29.80;66.20;;;;;;4995310;28;20508;-81
2022/08/20 01:54:16;;;;;;;17.08;9.48;;;29.40;66.90;;;;;;4977324;28;20027;-79
2022/08/20 01:56:52;;;;;;;17.13;9.68;;;29.00;67.60;;;;;;4993811;28;20041;-78
2022/08/20 01:59:18;;;;;;;13.82;9.00;;;28.80;67.50;;;;;;4979139;28;20041;-79
2022/08/20 02:01:44;;;;;;;16.45;8.57;;;28.60;68.70;;;;;;4989438;28;20043;-79
2022/08/20 02:04:10;;;;;;;16.35;9.40;;;28.70;68.50;;;;;;4975173;28;20073;-79
2022/08/20 02:06:40;;;;;;;15.95;9.90;;;28.60;68.50;;;;;;4973441;28;20023;-80
2022/08/20 02:09:07;;;;;;;16.65;10.15;;;28.60;68.40;;;;;;4975099;28;20101;-79
2022/08/20 02:11:33;;;;;;;20.95;9.45;;;28.70;68.20;;;;;;4975207;28;20087;-81
2022/08/20 02:14:01;;;;;;;18.38;9.25;;;28.90;67.70;;;;;;4975218;28;20544;-79
2022/08/20 02:16:32;;;;;;;15.25;8.70;;;29.10;67.50;;;;;;4974812;28;20035;-80
2022/08/20 02:19:03;;;;;;;14.10;8.93;;;29.00;67.60;;;;;;4971952;28;20026;-79
2022/08/20 02:21:32;;;;;;;18.88;8.93;;;29.00;67.60;;;;;;4973805;28;20037;-78
2022/08/20 02:23:59;;;;;;;17.55;9.70;;;29.00;67.40;;;;;;4973775;28;20062;-80
2022/08/20 02:26:25;;;;;;;13.82;8.40;;;29.10;66.90;;;;;;4972770;28;20442;-80
2022/08/20 02:28:53;;;;;;;14.82;8.40;;;29.10;67.10;;;;;;4972268;28;20045;-80
2022/08/20 02:31:21;;;;;;;18.35;8.52;;;29.20;67.00;;;;;;4967697;28;20027;-79
2022/08/20 02:33:48;;;;;;;17.80;8.95;;;29.10;66.60;;;;;;4975463;28;20023;-80
2022/08/20 02:36:16;;;;;;;14.00;9.45;;;28.90;68.10;;;;;;4971625;28;20433;-79
2022/08/20 02:38:43;;;;;;;17.10;9.50;;;28.80;67.80;;;;;;4974399;28;20027;-80
2022/08/20 02:41:09;;;;;;;14.57;8.70;;;29.00;67.80;;;;;;4974498;28;20022;-81
2022/08/20 02:43:36;;;;;;;17.00;8.90;;;29.00;67.40;;;;;;4975061;28;20035;-78
2022/08/20 02:46:03;;;;;;;14.80;8.40;;;28.90;67.40;;;;;;4970639;28;20058;-80
2022/08/20 02:48:30;;;;;;;14.95;8.75;;;28.70;67.70;;;;;;4970889;28;20465;-79
2022/08/20 02:51:00;;;;;;;15.85;8.10;;;28.60;68.00;;;;;;4974544;28;20027;-84
2022/08/20 02:53:27;;;;;;;;;;;28.30;68.50;;;;;;4970926;28;20023;-81
2022/08/20 02:55:52;;;;;;;16.15;7.70;;;28.30;68.60;;;;;;4955888;28;19929;-79
2022/08/20 02:58:19;;;;;;;15.25;7.90;;;28.40;68.40;;;;;;4973038;28;20486;-79
2022/08/20 03:00:45;;;;;;;15.93;8.63;;;28.50;68.30;;;;;;4971632;28;20047;-79
2022/08/20 03:03:11;;;;;;;12.02;8.10;;;28.60;68.20;;;;;;4972714;28;20038;-80
2022/08/20 03:05:43;;;;;;;18.67;9.52;;;28.60;67.90;;;;;;4973901;28;20023;-81
2022/08/20 03:08:11;;;;;;;15.70;7.88;;;28.80;67.70;;;;;;4973690;28;20077;-85
2022/08/20 03:10:38;;;;;;;17.85;8.80;;;28.90;67.10;;;;;;4973723;28;20031;-81
2022/08/20 03:13:05;;;;;;;15.18;8.85;;;29.10;67.10;;;;;;4975421;28;20073;-83
2022/08/20 03:15:32;;;;;;;15.60;9.05;;;29.10;66.50;;;;;;4962594;28;20035;-81
2022/08/20 03:17:59;;;;;;;14.75;9.18;;;29.20;66.30;;;;;;4964918;28;20165;-81
2022/08/20 03:20:26;;;;;;;15.10;9.35;;;29.20;66.20;;;;;;4966554;28;20078;-86
2022/08/20 03:22:52;;;;;;;17.15;9.32;;;29.30;66.30;;;;;;4972786;28;20034;-79
2022/08/20 03:25:18;;;;;;;19.25;9.50;;;29.30;66.20;;;;;;4973562;28;20038;-83
2022/08/20 03:27:45;;;;;;;13.93;8.25;;;29.00;66.60;;;;;;4972964;28;20022;-79
2022/08/20 03:30:13;;;;;;;21.52;9.32;;;28.80;67.00;;;;;;4973080;28;20497;-87
2022/08/20 03:32:39;;;;;;;17.88;9.02;;;28.90;67.00;;;;;;4973214;28;20390;-79
2022/08/20 03:35:09;;;;;;;13.82;8.40;;;28.90;66.90;;;;;;4974625;28;20382;-79
2022/08/20 03:37:35;;;;;;;13.55;8.57;;;29.00;66.40;;;;;;4978608;28;20023;-86
2022/08/20 03:40:03;;;;;;;16.80;8.73;;;28.90;66.90;;;;;;4978393;28;20038;-83
2022/08/20 03:42:30;;;;;;;15.70;9.13;;;29.00;66.80;;;;;;4977412;28;20478;-81
2022/08/20 03:44:55;;;;;;;17.50;10.52;;;29.10;66.50;;;;;;4977368;28;20065;-81
2022/08/20 03:47:22;;;;;;;12.95;8.93;;;29.10;66.30;;;;;;4976640;28;20058;-84
2022/08/20 03:49:49;;;;;;;14.82;9.00;;;29.20;66.20;;;;;;4977083;28;20023;-84
2022/08/20 03:52:16;;;;;;;11.43;8.45;;;29.20;66.10;;;;;;4976581;28;20473;-83
2022/08/20 03:54:44;;;;;;;12.63;9.02;;;29.20;66.50;;;;;;4977517;28;20085;-79
2022/08/20 03:57:13;;;;;;;16.48;9.55;;;29.20;66.50;;;;;;4967208;28;20024;-80
2022/08/20 03:59:40;;;;;;;16.85;8.82;;;29.30;66.40;;;;;;4969764;28;20026;-81
2022/08/20 04:02:05;;;;;;;18.38;9.10;;;29.20;66.40;;;;;;4994608;28;20486;-79
2022/08/20 04:04:31;;;;;;;19.52;9.68;;;29.20;66.40;;;;;;4996878;28;20073;-87
2022/08/20 04:06:57;;;;;;;15.38;8.70;;;29.20;66.20;;;;;;4997127;28;20028;-80
2022/08/20 04:09:26;;;;;;;17.58;8.50;;;29.30;66.40;;;;;;5008181;28;20114;-87
2022/08/20 04:11:58;;;;;;;14.80;8.82;;;29.40;66.10;;;;;;4997092;28;20077;-80
2022/08/20 04:14:24;;;;;;;15.77;8.90;;;29.20;66.20;;;;;;4979638;28;20035;-80
2022/08/20 04:16:50;;;;;;;15.30;8.90;;;29.30;66.60;;;;;;5009851;28;20037;-82
2022/08/20 04:19:15;;;;;;;15.90;10.07;;;29.30;66.40;;;;;;5016661;28;20097;-82
2022/08/20 04:21:41;;;;;;;12.02;8.80;;;29.30;66.40;;;;;;5003807;28;20080;-80
2022/08/20 04:24:07;;;;;;;14.80;9.52;;;29.40;66.30;;;;;;4977457;28;20559;-81
2022/08/20 04:26:35;;;;;;;17.45;10.00;;;29.40;66.10;;;;;;4989942;28;20047;-79
2022/08/20 04:29:00;;;;;;;15.45;10.88;;;29.50;66.20;;;;;;4975096;28;20113;-79
2022/08/20 04:31:31;;;;;;;17.63;10.32;;;29.60;65.90;;;;;;4988048;28;20358;-80
2022/08/20 04:33:58;;;;;;;20.33;9.48;;;29.70;65.60;;;;;;4977158;28;20026;-77
2022/08/20 04:36:24;;;;;;;17.85;9.10;;;29.80;65.30;;;;;;5000288;28;20026;-79
2022/08/20 04:38:49;;;;;;;18.38;10.23;;;29.80;65.40;;;;;;4995879;28;20026;-84
2022/08/20 04:41:16;;;;;;;18.70;9.73;;;29.90;65.00;;;;;;4978487;28;20080;-80
2022/08/20 04:43:42;;;;;;;18.40;9.20;;;29.80;65.30;;;;;;4996460;28;20037;-84
2022/08/20 04:46:08;;;;;;;17.33;9.30;;;29.60;65.80;;;;;;4978376;28;20022;-81
2022/08/20 04:50:39;;;;;;;17.23;9.27;;;29.20;66.30;;;;;;5051495;27;1417339;-79
2022/08/20 04:53:08;;;;;;;13.27;8.68;;;29.20;66.90;;;;;;5053629;28;20029;-82
2022/08/20 04:55:38;;;;;;;14.48;8.43;;;29.30;66.80;;;;;;5062808;28;20119;-82
2022/08/20 04:58:07;;;;;;;15.65;9.93;;;29.30;66.50;;;;;;5072704;28;20032;-84
2022/08/20 05:00:33;;;;;;;18.27;9.75;;;29.40;66.20;;;;;;5072647;28;20534;-85
2022/08/20 05:02:59;;;;;;;14.30;9.27;;;29.30;66.40;;;;;;5090856;28;20062;-84
2022/08/20 05:05:26;;;;;;;15.10;9.15;;;29.10;67.20;;;;;;5073296;28;20020;-79
2022/08/20 05:07:52;;;;;;;14.50;8.70;;;28.60;67.50;;;;;;5072826;28;20467;-78
2022/08/20 05:10:19;;;;;;;13.32;8.05;;;28.50;68.00;;;;;;5089964;28;20440;-79
2022/08/20 05:12:45;;;;;;;15.27;8.18;;;28.60;67.80;;;;;;5090313;28;20028;-78
2022/08/20 05:15:12;;;;;;;15.48;8.68;;;28.60;68.10;;;;;;5090029;28;20028;-78
2022/08/20 05:17:43;;;;;;;18.77;9.07;;;28.80;67.50;;;;;;5071673;28;20486;-78
2022/08/20 05:20:12;;;;;;;12.07;8.68;;;29.00;67.50;;;;;;5071881;28;20119;-76
2022/08/20 05:22:38;;;;;;;16.17;8.10;;;29.10;67.30;;;;;;5071890;28;20471;-77
2022/08/20 05:25:05;;;;;;;17.08;8.20;;;29.10;66.60;;;;;;5090002;28;20025;-77
2022/08/20 05:27:30;;;;;;;19.42;9.15;;;29.00;67.70;;;;;;5087743;28;20500;-79
2022/08/20 05:30:06;;;;;;;14.05;8.55;;;29.10;66.90;;;;;;5051645;28;20036;-80
2022/08/20 05:32:34;;;;;;;17.45;9.38;;;29.10;66.90;;;;;;5070605;28;20017;-81
2022/08/20 05:35:00;;;;;;;13.88;8.02;;;28.80;67.20;;;;;;5052867;28;20091;-84
2022/08/20 05:37:26;;;;;;;13.68;7.55;;;28.80;67.70;;;;;;5070415;28;20021;-83
2022/08/20 05:39:52;;;;;;;12.85;7.65;;;29.10;67.10;;;;;;5052910;28;20021;-81
2022/08/20 05:42:18;;;;;;;14.93;8.15;;;29.10;67.10;;;;;;5070527;28;20052;-85
2022/08/20 05:44:45;;;;;;;18.15;7.95;;;29.20;66.50;;;;;;5052440;28;20390;-85
2022/08/20 05:47:11;;;;;;;14.65;7.68;;;29.20;66.10;;;;;;5070700;28;20021;-84
2022/08/20 05:49:37;;;;;;;11.85;7.50;;;29.30;65.90;;;;;;5069906;28;20056;-85
2022/08/20 05:52:04;;;;;;;13.93;7.85;;;29.40;65.40;;;;;;5069822;28;20040;-83
2022/08/20 05:54:30;;;;;;;15.07;7.55;;;29.50;65.10;;;;;;5052288;28;20037;-80
2022/08/20 05:56:56;;;;;;;14.75;8.18;;;29.60;65.20;;;;;;5051958;28;20063;-79
2022/08/20 05:59:23;;;;;;;11.77;7.47;;;29.60;65.50;;;;;;5051589;28;20115;-82
2022/08/20 06:01:48;;;;;;;13.88;7.82;;;29.70;66.00;;;;;;5039667;28;20112;-83
2022/08/20 06:04:23;;;;;;;14.95;7.30;;;29.80;65.00;;;;;;5037986;28;20108;-81
2022/08/20 06:06:54;;;;;;;15.18;7.13;;;30.00;64.90;;;;;;5056223;28;20100;-81
2022/08/20 06:09:22;;;;;;;16.50;7.22;;;30.20;64.60;;;;;;5038261;28;20044;-82
2022/08/20 06:11:51;;;;;;;15.35;6.90;;;30.40;64.40;;;;;;5038447;28;20490;-85
2022/08/20 06:14:17;;;;;;;16.27;7.47;;;30.50;63.90;;;;;;5055965;28;20029;-81
2022/08/20 06:16:43;;;;;;;16.40;9.35;;;30.40;63.90;;;;;;5055958;28;20028;-80
2022/08/20 06:22:00;;;;;;;16.45;8.73;;;30.90;63.30;;;;;;5034578;28;20044;-80
2022/08/20 06:24:29;;;;;;;16.63;8.80;;;31.20;62.80;;;;;;5035984;28;20040;-85
2022/08/20 06:27:01;;;;;;;15.50;8.43;;;31.20;62.40;;;;;;5018131;28;20021;-82
2022/08/20 06:29:27;;;;;;;11.88;6.65;;;31.20;62.60;;;;;;5015663;28;20036;-82
2022/08/20 06:31:53;;;;;;;17.30;6.43;;;31.20;63.00;;;;;;4998727;28;20029;-81
2022/08/20 06:34:19;;;;;;;13.98;6.75;;;31.10;62.60;;;;;;4998943;28;20034;-82
2022/08/20 06:36:46;;;;;;;12.35;6.70;;;31.00;63.30;;;;;;5016315;28;20029;-80
2022/08/20 06:39:13;;;;;;;12.02;5.80;;;30.80;63.50;;;;;;5016226;28;20046;-88
2022/08/20 06:41:39;;;;;;;13.80;6.38;;;30.70;62.80;;;;;;4998382;28;20481;-81
2022/08/20 06:44:06;;;;;;;11.88;7.25;;;30.70;62.60;;;;;;4998247;28;20040;-80
2022/08/20 06:46:34;;;;;;;14.52;7.45;;;30.80;63.10;;;;;;5014834;28;20102;-78
2022/08/20 06:49:00;;;;;;;15.05;6.97;;;30.80;63.00;;;;;;4997573;28;20032;-77
2022/08/20 06:51:26;;;;;;;17.42;7.70;;;31.00;63.20;;;;;;5014854;28;20030;-77
2022/08/20 06:53:52;;;;;;;12.75;6.88;;;31.20;63.30;;;;;;5015169;28;20014;-78
2022/08/20 06:56:17;;;;;;;11.40;6.95;;;31.20;63.20;;;;;;5014998;28;20473;-78
2022/08/20 06:58:43;;;;;;;16.17;8.35;;;31.20;63.20;;;;;;4997331;28;20373;-86
2022/08/20 07:01:10;;;;;;;13.00;7.50;;;31.00;63.20;;;;;;4997542;28;20083;-80
2022/08/20 07:03:37;;;;;;;16.45;7.55;;;31.00;63.40;;;;;;4997399;28;20030;-86
2022/08/20 07:06:03;;;;;;;14.45;6.07;;;31.00;63.40;;;;;;4997432;28;20032;-82
2022/08/20 07:08:29;;;;;;;12.13;6.47;;;30.80;63.10;;;;;;4997649;28;20018;-81
2022/08/20 07:10:55;;;;;;;11.93;5.75;;;30.50;64.00;;;;;;4997878;28;20072;-80
2022/08/20 07:13:20;;;;;;;14.77;6.45;;;30.20;65.20;;;;;;5014098;28;20025;-81
2022/08/20 07:15:46;;;;;;;10.35;6.68;;;30.10;65.40;;;;;;4997273;28;20066;-80
2022/08/20 07:18:13;;;;;;;11.23;6.72;;;30.00;65.20;;;;;;4997686;28;20037;-80
2022/08/20 07:20:39;;;;;;;13.13;6.55;;;30.30;65.40;;;;;;4997087;28;20065;-79
2022/08/20 07:23:06;;;;;;;13.90;7.78;;;30.40;64.50;;;;;;4997464;28;20030;-76
2022/08/20 07:25:33;;;;;;;15.20;8.63;;;30.00;65.80;;;;;;4997699;28;20026;-77
2022/08/20 07:28:10;;;;;;;16.13;8.18;;;29.80;66.60;;;;;;4997605;28;20025;-85
2022/08/20 07:33:31;;;;;;;16.75;8.35;;;30.20;67.10;;;;;;5015037;28;20053;-79
2022/08/20 07:36:02;;;;;;;14.13;7.93;;;30.40;67.20;;;;;;5015200;28;20057;-79
2022/08/20 07:38:29;;;;;;;17.10;9.25;;;30.30;66.30;;;;;;5015312;28;20500;-81
2022/08/20 07:41:01;;;;;;;14.43;8.55;;;30.00;66.30;;;;;;4996975;28;20481;-83
2022/08/20 07:43:28;;;;;;;15.98;9.27;;;29.80;66.40;;;;;;5014411;28;20082;-81
2022/08/20 07:45:56;;;;;;;16.95;9.18;;;29.40;67.30;;;;;;5014503;28;20022;-77
2022/08/20 07:48:27;;;;;;;16.77;8.85;;;29.50;67.70;;;;;;5014695;28;20064;-76
2022/08/20 07:50:57;;;;;;;16.13;9.48;;;29.70;66.90;;;;;;4996468;28;20038;-78
2022/08/20 07:53:24;;;;;;;18.13;9.88;;;29.80;66.90;;;;;;5014393;28;20022;-85
2022/08/20 07:55:52;;;;;;;17.40;10.27;;;29.90;66.60;;;;;;5014851;28;20380;-83
2022/08/20 07:58:22;;;;;;;20.55;11.52;;;29.80;66.80;;;;;;4997131;28;20065;-82
2022/08/20 08:00:48;;;;;;;16.10;9.98;;;29.80;66.50;;;;;;5014255;28;20026;-77
2022/08/20 08:03:13;;;;;;;18.52;11.13;;;29.90;66.80;;;;;;5014515;28;20033;-77
2022/08/20 08:05:42;;;;;;;19.83;10.98;;;29.80;66.90;;;;;;4666202;28;9999654;-83
2022/08/20 08:08:11;;;;;;;15.15;10.38;;;29.50;67.60;;;;;;4994136;28;20026;-79
2022/08/20 08:10:37;;;;;;;16.83;10.82;;;29.40;67.60;;;;;;4994381;28;20036;-83
2022/08/20 08:13:07;;;;;;;16.23;9.57;;;29.50;67.70;;;;;;4994917;28;20026;-82
2022/08/20 08:15:36;;;;;;;13.45;9.38;;;29.50;67.20;;;;;;5012379;28;20022;-78
2022/08/20 08:18:07;;;;;;;18.35;10.10;;;29.70;66.80;;;;;;4994139;28;20508;-80
2022/08/20 08:20:40;;;;;;;17.05;9.27;;;29.80;66.20;;;;;;4993974;28;20064;-83
2022/08/20 08:23:09;;;;;;;16.13;8.77;;;29.40;67.30;;;;;;5011942;28;20034;-81
2022/08/20 08:25:35;;;;;;;15.57;9.30;;;29.10;67.30;;;;;;5010422;28;20755;-82
2022/08/20 08:28:02;;;;;;;17.90;9.50;;;29.00;67.70;;;;;;5010714;28;20049;-76
2022/08/20 08:30:27;;;;;;;13.88;9.55;;;28.80;68.30;;;;;;5011806;28;20037;-78
2022/08/20 08:35:39;;;;;;;18.00;10.15;;;28.90;68.10;;;;;;5011559;28;20076;-82
2022/08/20 08:38:04;;;;;;;18.70;10.73;;;28.80;67.70;;;;;;5011008;28;20025;-85
2022/08/20 08:40:32;;;;;;;18.13;9.27;;;28.70;68.20;;;;;;5011043;28;20037;-81
2022/08/20 08:43:03;;;;;;;15.70;9.65;;;29.00;67.70;;;;;;5010974;28;20102;-82
2022/08/20 08:45:44;;;;;;;18.55;9.73;;;29.10;67.30;;;;;;4993779;28;20029;-80
2022/08/20 08:48:13;;;;;;;12.20;8.70;;;29.00;67.10;;;;;;5009900;28;20061;-80
2022/08/20 08:50:41;;;;;;;18.15;9.90;;;29.00;67.20;;;;;;4993316;28;20042;-82
2022/08/20 08:53:10;;;;;;;19.75;12.48;;;29.10;66.80;;;;;;5010930;28;20595;-80
2022/08/20 08:55:35;;;;;;;22.58;17.60;;;29.20;66.80;;;;;;5011083;28;20117;-78
2022/08/20 08:58:02;;;;;;;29.40;26.45;;;29.20;66.70;;;;;;5011229;28;20041;-78
2022/08/20 09:00:29;;;;;;;46.55;42.83;;;29.40;66.80;;;;;;4994105;28;20036;-79
2022/08/20 09:03:15;;;;;;;18.33;14.57;;;29.60;66.30;;;;;;4992938;28;20022;-78
2022/08/20 09:05:57;;;;;;;59.83;54.72;;;29.60;66.40;;;;;;5002486;28;20116;-81
2022/08/20 09:08:31;;;;;;;21.45;11.35;;;29.80;65.80;;;;;;5011225;28;20501;-81
2022/08/20 09:11:03;;;;;;;18.55;12.35;;;29.90;65.20;;;;;;4993094;28;20058;-78
2022/08/20 09:13:29;;;;;;;16.98;12.57;;;29.90;65.30;;;;;;4993671;28;20022;-79
2022/08/20 09:15:54;;;;;;;18.48;12.75;;;29.90;65.40;;;;;;4993942;28;20172;-81
2022/08/20 09:18:20;;;;;;;24.38;13.65;;;29.80;65.80;;;;;;4993923;28;20080;-81
2022/08/20 09:20:45;;;;;;;23.15;13.20;;;29.80;66.10;;;;;;5011065;28;20449;-83
2022/08/20 09:23:11;;;;;;;23.80;13.82;;;29.80;66.20;;;;;;5010474;28;20033;-78
2022/08/20 09:25:37;;;;;;;25.90;14.70;;;29.50;66.50;;;;;;4992165;28;20519;-77
2022/08/20 09:28:03;;;;;;;21.70;13.60;;;29.60;66.20;;;;;;5009370;28;20046;-81
2022/08/20 09:30:28;;;;;;;21.08;14.77;;;29.60;66.60;;;;;;4991730;28;20481;-78
2022/08/20 09:32:57;;;;;;;22.48;14.90;;;29.50;67.00;;;;;;5008536;28;20434;-78
2022/08/20 09:35:23;;;;;;;21.90;15.75;;;29.60;67.00;;;;;;5009572;28;20487;-78
2022/08/20 09:37:48;;;;;;;26.65;17.35;;;29.70;67.10;;;;;;4994579;28;20668;-78
2022/08/20 09:40:14;;;;;;;23.20;14.52;;;29.80;66.80;;;;;;5012915;28;20036;-79
2022/08/20 09:42:40;;;;;;;29.20;17.92;;;29.70;67.80;;;;;;5013681;28;20022;-79
2022/08/20 09:45:06;;;;;;;25.17;17.33;;;29.60;68.10;;;;;;5014989;28;20038;-81
2022/08/20 09:47:32;;;;;;;24.63;16.90;;;29.60;68.50;;;;;;5014887;28;20034;-95
2022/08/20 09:49:58;;;;;;;24.23;15.57;;;29.50;68.90;;;;;;5017084;28;20045;-76
2022/08/20 09:52:30;;;;;;;27.48;18.83;;;29.10;69.40;;;;;;4997467;28;20029;-81
2022/08/20 09:55:02;;;;;;;16.30;12.23;;;28.60;70.80;;;;;;4994496;28;20029;-79
2022/08/20 09:57:29;;;;;;;15.05;9.00;;;28.10;71.50;;;;;;5014375;28;20447;-81
2022/08/20 10:00:01;;;;;;;17.00;8.40;;;27.60;72.20;;;;;;4996917;28;20153;-79
2022/08/20 10:02:27;;;;;;;12.70;7.80;;;27.10;73.90;;;;;;5014038;28;20030;-80
2022/08/20 10:04:53;;;;;;;15.68;8.13;;;27.00;74.70;;;;;;4992003;28;20053;-79
2022/08/20 10:07:18;;;;;;;16.55;8.32;;;27.20;73.60;;;;;;4993512;28;20503;-84
2022/08/20 10:09:44;;;;;;;13.70;8.90;;;27.60;71.80;;;;;;4976646;28;20066;-82
2022/08/20 10:12:10;;;;;;;17.98;8.75;;;28.10;70.80;;;;;;4993481;28;20488;-79
2022/08/20 10:14:35;;;;;;;18.88;9.35;;;28.50;69.70;;;;;;5008614;28;20037;-82
2022/08/20 10:17:02;;;;;;;16.95;10.27;;;28.60;69.90;;;;;;5016274;28;20022;-83
2022/08/20 10:19:30;;;;;;;16.25;8.85;;;28.70;69.10;;;;;;5031438;28;20514;-78
2022/08/20 10:21:56;;;;;;;18.90;10.45;;;28.80;68.70;;;;;;4995628;28;20038;-81
2022/08/20 10:24:22;;;;;;;16.67;10.07;;;28.90;68.30;;;;;;5004788;28;20037;-81
2022/08/20 10:26:48;;;;;;;17.95;10.65;;;28.90;68.50;;;;;;4990431;28;20027;-81
2022/08/20 10:29:14;;;;;;;19.60;10.18;;;29.00;68.20;;;;;;4995085;28;20165;-80
2022/08/20 10:31:41;;;;;;;17.33;10.30;;;29.10;68.10;;;;;;4991463;28;20469;-80
2022/08/20 10:34:06;;;;;;;18.00;11.18;;;29.20;68.00;;;;;;4998041;28;20038;-80
2022/08/20 10:36:33;;;;;;;12.73;9.10;;;29.30;67.90;;;;;;4994390;28;20077;-77
2022/08/20 10:38:58;;;;;;;19.73;14.38;;;29.20;69.40;;;;;;4993365;28;20035;-79
2022/08/20 10:41:24;;;;;;;14.68;9.68;;;28.90;70.30;;;;;;4996335;28;20033;-77
2022/08/20 10:43:50;;;;;;;13.60;8.77;;;28.70;71.70;;;;;;4996602;28;20378;-79
2022/08/20 10:46:16;;;;;;;20.35;9.80;;;28.80;70.60;;;;;;4646080;28;10000075;-78
2022/08/20 10:48:42;;;;;;;14.20;8.48;;;29.00;69.70;;;;;;4992043;28;20101;-78
2022/08/20 10:51:07;;;;;;;16.38;8.65;;;29.20;69.60;;;;;;4989707;28;20080;-79
2022/08/20 10:53:34;;;;;;;16.38;9.48;;;29.00;70.10;;;;;;4986245;28;20078;-78
2022/08/20 10:55:59;;;;;;;15.55;7.90;;;29.20;69.90;;;;;;4984903;28;20228;-80
2022/08/20 10:58:32;;;;;;;12.15;8.07;;;29.40;68.10;;;;;;4994132;28;20489;-80
2022/08/20 11:00:58;;;;;;;13.52;9.27;;;29.80;67.50;;;;;;4994925;28;20018;-81
2022/08/20 11:03:24;;;;;;;13.15;8.10;;;29.90;67.20;;;;;;4997250;28;20079;-81
2022/08/20 11:05:50;;;;;;;13.52;6.63;;;30.10;68.10;;;;;;5003359;28;20030;-83
2022/08/20 11:08:16;;;;;;;14.13;7.25;;;30.10;68.00;;;;;;5001447;28;20026;-84
2022/08/20 11:10:41;;;;;;;10.48;7.07;;;29.80;67.80;;;;;;4998932;28;20500;-83
2022/08/20 11:13:08;;;;;;;13.68;7.47;;;29.40;69.60;;;;;;4994719;28;20031;-83
2022/08/20 11:15:40;;;;;;;12.88;7.03;;;29.40;69.60;;;;;;4998606;28;20058;-79
2022/08/20 11:18:06;;;;;;;13.88;8.50;;;29.70;68.70;;;;;;4994262;28;20031;-80
2022/08/20 11:20:33;;;;;;;10.43;6.65;;;29.70;68.30;;;;;;4999181;28;20128;-82
2022/08/20 11:22:58;;;;;;;13.95;7.72;;;29.50;68.50;;;;;;5001865;28;20081;-81
2022/08/20 11:25:25;;;;;;;13.93;7.38;;;29.10;69.80;;;;;;4993242;28;20053;-85
2022/08/20 11:27:52;;;;;;;14.77;8.40;;;28.90;70.40;;;;;;4994607;28;20084;-86
2022/08/20 11:30:30;;;;;;;11.02;8.38;;;28.90;71.00;;;;;;4993796;28;20092;-80
2022/08/20 11:32:58;;;;;;;13.50;8.48;;;28.90;71.80;;;;;;4991885;28;20077;-82
2022/08/20 11:35:25;;;;;;;12.18;6.88;;;28.30;72.20;;;;;;4992703;28;20053;-81
2022/08/20 11:37:52;;;;;;;12.38;7.65;;;28.20;72.10;;;;;;4993038;28;20811;-78
2022/08/20 11:40:18;;;;;;;14.32;10.05;;;28.40;71.00;;;;;;5001499;28;20492;-84
2022/08/20 11:42:46;;;;;;;14.40;7.85;;;28.70;70.00;;;;;;4992151;28;20563;-80
2022/08/20 11:45:12;;;;;;;12.02;6.57;;;28.90;69.00;;;;;;4976292;28;20125;-81
2022/08/20 11:47:38;;;;;;;13.70;8.52;;;29.20;68.90;;;;;;4989463;28;20495;-75
2022/08/20 11:50:08;;;;;;;14.00;7.57;;;29.30;68.80;;;;;;5001874;28;20765;-76
2022/08/20 11:52:35;;;;;;;12.48;6.80;;;29.20;70.30;;;;;;4993532;28;20030;-79
2022/08/20 11:55:01;;;;;;;10.93;6.55;;;29.10;68.30;;;;;;4977489;28;20073;-77
2022/08/20 11:57:29;;;;;;;13.95;7.63;;;29.30;67.90;;;;;;4974524;28;20031;-84
2022/08/20 11:59:57;;;;;;;11.95;6.93;;;29.30;68.70;;;;;;4984988;28;20100;-81
2022/08/20 12:02:24;;;;;;;9.57;6.45;;;29.00;69.00;;;;;;4991992;28;20030;-81
2022/08/20 12:04:50;;;;;;;13.57;7.18;;;29.10;69.90;;;;;;4990668;28;20034;-79
2022/08/20 12:07:19;;;;;;;10.27;6.70;;;29.10;71.70;;;;;;4991458;28;20030;-79
2022/08/20 12:09:45;;;;;;;11.82;6.75;;;29.20;71.30;;;;;;4974777;28;20077;-80
2022/08/20 12:12:15;;;;;;;12.18;6.13;;;29.20;70.20;;;;;;4975077;28;20404;-82
2022/08/20 12:14:41;;;;;;;12.97;6.30;;;29.50;69.40;;;;;;4992222;28;20037;-81
2022/08/20 12:17:22;;;;;;;14.13;7.30;;;29.60;70.30;;;;;;4993939;28;20351;-82
2022/08/20 12:19:50;;;;;;;10.77;5.75;;;29.90;67.00;;;;;;4989327;28;20505;-82
2022/08/20 12:22:16;;;;;;;10.25;4.75;;;29.80;68.40;;;;;;4994261;28;20124;-81
2022/08/20 12:24:42;;;;;;;9.95;5.95;;;29.50;67.90;;;;;;4992431;28;20038;-81
2022/08/20 12:27:17;;;;;;;11.23;6.00;;;29.50;69.00;;;;;;4976322;28;20029;-81
2022/08/20 12:29:46;;;;;;;12.52;5.90;;;29.70;68.10;;;;;;4993379;28;20042;-81
2022/08/20 12:32:12;;;;;;;16.83;6.80;;;30.10;67.20;;;;;;4995172;28;20165;-81
2022/08/20 12:34:40;;;;;;;11.43;5.50;;;30.20;66.00;;;;;;5010373;28;20022;-79
2022/08/20 12:37:13;;;;;;;15.85;5.68;;;30.10;66.40;;;;;;5012067;28;20028;-86
2022/08/20 12:39:41;;;;;;;11.73;5.35;;;30.00;65.90;;;;;;5011670;28;20396;-79
2022/08/20 12:42:08;;;;;;;13.68;5.95;;;30.30;64.70;;;;;;4990463;28;20057;-78
2022/08/20 12:44:34;;;;;;;12.88;7.20;;;30.50;64.90;;;;;;5010014;28;20025;-78
2022/08/20 12:47:27;;;;;;;10.00;6.00;;;30.60;66.30;;;;;;5009040;28;20045;-77
2022/08/20 12:49:59;;;;;;;12.38;6.43;;;30.40;67.40;;;;;;5011675;28;20100;-77